createdAt,value
2022-12-06T00:01:32.290Z,101707.63
2022-12-06T00:04:03.255Z,101708.09
2022-12-06T00:06:33.499Z,101724.53
2022-12-06T00:09:02.254Z,101693.53
2022-12-06T00:11:32.137Z,101709.41
2022-12-06T00:14:02.269Z,101707.75
2022-12-06T00:16:32.730Z,101680.13
2022-12-06T00:19:01.698Z,101701.22
2022-12-06T00:21:32.130Z,101688.97
2022-12-06T00:24:01.109Z,101699.16
2022-12-06T00:26:30.345Z,101692.50
2022-12-06T00:29:00.531Z,101658.00
2022-12-06T00:31:32.393Z,101636.63
2022-12-06T00:34:00.607Z,101599.28
2022-12-06T00:36:31.518Z,101662.53
2022-12-06T00:39:01.257Z,101666.81
2022-12-06T00:41:29.638Z,101663.88
2022-12-06T00:43:57.817Z,101606.25
2022-12-06T00:46:28.535Z,101652.69
2022-12-06T00:49:00.267Z,101629.78
2022-12-06T00:51:30.434Z,101644.31
2022-12-06T00:53:59.162Z,101589.34
2022-12-06T00:56:28.044Z,101589.03
2022-12-06T00:58:56.259Z,101638.13
2022-12-06T01:01:26.483Z,101639.19
2022-12-06T01:03:56.241Z,101640.41
2022-12-06T01:06:28.554Z,101635.00
2022-12-06T01:08:57.342Z,101613.78
2022-12-06T01:11:26.092Z,101630.78
2022-12-06T01:13:54.797Z,101619.34
2022-12-06T01:16:24.394Z,101567.75
2022-12-06T01:18:54.109Z,101618.13
2022-12-06T01:21:23.134Z,101583.06
2022-12-06T01:23:54.303Z,101568.50
2022-12-06T01:26:24.793Z,101571.56
2022-12-06T01:28:52.939Z,101595.53
2022-12-06T01:31:21.187Z,101587.03
2022-12-06T01:33:49.317Z,101592.69
2022-12-06T01:36:19.104Z,101587.59
2022-12-06T01:38:52.693Z,101563.81
2022-12-06T01:41:21.990Z,101589.88
2022-12-06T01:43:50.782Z,101579.75
2022-12-06T01:46:28.795Z,101523.13
2022-12-06T01:49:04.326Z,101573.41
2022-12-06T01:51:32.653Z,101501.41
2022-12-06T01:54:04.979Z,101520.50
2022-12-06T01:56:33.331Z,101568.34
2022-12-06T01:59:01.765Z,101491.41
2022-12-06T02:01:31.517Z,101545.78
2022-12-06T02:04:02.141Z,101556.31
2022-12-06T02:06:32.106Z,101546.56
2022-12-06T02:09:04.639Z,101552.31
2022-12-06T02:11:35.410Z,101485.81
2022-12-06T02:14:06.339Z,101545.00
2022-12-06T02:16:59.184Z,101535.56
2022-12-06T02:19:58.429Z,101532.84
2022-12-06T02:22:35.922Z,101538.69
2022-12-06T02:25:43.437Z,101536.75
2022-12-06T02:28:33.502Z,101537.38
2022-12-06T02:31:08.761Z,101545.75
2022-12-06T02:33:43.551Z,101539.16
2022-12-06T02:36:22.070Z,101494.38
2022-12-06T02:38:53.871Z,101528.53
2022-12-06T02:41:25.467Z,101474.06
2022-12-06T02:43:59.285Z,101522.44
2022-12-06T02:46:34.149Z,101520.66
2022-12-06T02:49:04.878Z,101517.19
2022-12-06T02:51:36.157Z,101474.06
2022-12-06T02:54:08.881Z,101504.03
2022-12-06T02:56:37.173Z,101471.94
2022-12-06T02:59:05.664Z,101490.88
2022-12-06T03:01:39.026Z,101493.56
2022-12-06T03:04:48.884Z,101474.56
2022-12-06T03:07:28.741Z,101461.38
2022-12-06T03:10:11.041Z,101492.66
2022-12-06T03:12:48.973Z,101466.31
2022-12-06T03:15:25.026Z,101486.47
2022-12-06T03:18:00.123Z,101363.44
2022-12-06T03:20:33.450Z,101434.25
2022-12-06T03:23:05.232Z,101429.94
2022-12-06T03:25:36.448Z,101393.28
2022-12-06T03:28:07.965Z,101397.91
2022-12-06T03:30:36.674Z,101410.97
2022-12-06T03:33:06.473Z,101403.97
2022-12-06T03:35:36.813Z,101457.84
2022-12-06T03:38:07.544Z,101461.03
2022-12-06T03:40:38.343Z,101430.50
2022-12-06T03:43:06.966Z,101377.59
2022-12-06T03:45:40.396Z,101466.16
2022-12-06T03:48:13.897Z,101463.78
2022-12-06T03:50:46.670Z,101439.91
2022-12-06T03:53:14.567Z,101459.19
2022-12-06T03:55:42.887Z,101467.84
2022-12-06T03:58:10.880Z,101463.06
2022-12-06T04:00:38.960Z,101451.59
2022-12-06T04:03:06.964Z,101405.88
2022-12-06T04:05:36.427Z,101415.03
2022-12-06T04:08:04.510Z,101411.28
2022-12-06T04:10:32.433Z,101382.66
2022-12-06T04:13:05.384Z,101451.00
2022-12-06T04:15:36.172Z,101398.81
2022-12-06T04:18:18.667Z,101433.03
2022-12-06T04:21:14.749Z,101434.53
2022-12-06T04:23:44.449Z,101385.84
2022-12-06T04:26:15.036Z,101368.47
2022-12-06T04:29:01.138Z,101428.19
2022-12-06T04:31:46.671Z,101423.06
2022-12-06T04:34:32.091Z,101433.00
2022-12-06T04:37:18.901Z,101416.56
2022-12-06T04:39:46.961Z,101421.44
2022-12-06T04:42:32.649Z,101407.34
2022-12-06T04:45:00.840Z,101408.50
2022-12-06T04:47:28.822Z,101407.53
2022-12-06T04:49:56.841Z,101406.03
2022-12-06T04:52:29.111Z,101394.75
2022-12-06T04:55:00.872Z,101396.06
2022-12-06T04:57:29.055Z,101396.38
2022-12-06T04:59:57.115Z,101406.28
2022-12-06T05:02:25.202Z,101391.44
2022-12-06T05:04:53.189Z,101359.44
2022-12-06T05:07:21.339Z,101395.41
2022-12-06T05:09:50.767Z,101387.94
2022-12-06T05:12:18.741Z,101310.06
2022-12-06T05:14:46.635Z,101362.00
2022-12-06T05:17:14.656Z,101343.09
2022-12-06T05:19:42.643Z,101375.78
2022-12-06T05:22:10.514Z,101288.34
2022-12-06T05:24:38.452Z,101348.00
2022-12-06T05:27:07.810Z,101358.44
2022-12-06T05:29:35.725Z,101297.38
2022-12-06T05:32:03.830Z,101314.63
2022-12-06T05:34:32.144Z,101355.88
2022-12-06T05:37:00.058Z,101354.75
2022-12-06T05:39:29.293Z,101355.06
2022-12-06T05:41:57.576Z,101355.47
2022-12-06T05:44:26.844Z,101354.91
2022-12-06T05:46:54.784Z,101354.84
2022-12-06T05:49:22.867Z,101356.22
2022-12-06T05:51:50.746Z,101309.72
2022-12-06T05:54:18.747Z,101351.38
2022-12-06T05:56:46.889Z,101351.34
2022-12-06T05:59:14.777Z,101280.69
2022-12-06T06:01:44.538Z,101350.00
2022-12-06T06:04:12.732Z,101273.53
2022-12-06T06:06:40.652Z,101298.28
2022-12-06T06:09:08.543Z,101339.19
2022-12-06T06:11:36.809Z,101335.25
2022-12-06T06:14:04.697Z,101325.00
2022-12-06T06:16:34.385Z,101333.56
2022-12-06T06:19:04.048Z,101266.03
2022-12-06T06:21:32.239Z,101321.56
2022-12-06T06:24:00.271Z,101310.69
2022-12-06T06:26:28.299Z,101282.25
2022-12-06T06:28:56.293Z,101308.22
2022-12-06T06:31:24.224Z,101315.06
2022-12-06T06:33:52.306Z,101315.94
2022-12-06T06:36:21.675Z,101311.19
2022-12-06T06:38:49.557Z,101310.97
2022-12-06T06:41:17.578Z,101237.09
2022-12-06T06:43:45.569Z,101305.22
2022-12-06T06:46:13.608Z,101310.75
2022-12-06T06:48:41.802Z,101303.38
2022-12-06T06:51:12.156Z,101302.25
2022-12-06T06:53:41.201Z,101296.66
2022-12-06T06:56:09.898Z,101246.31
2022-12-06T06:58:38.426Z,101229.16
2022-12-06T07:01:08.693Z,101254.50
2022-12-06T07:03:37.008Z,101295.59
2022-12-06T07:06:10.336Z,101245.84
2022-12-06T07:08:39.596Z,101293.44
2022-12-06T07:11:09.380Z,101292.59
2022-12-06T07:13:38.581Z,101252.38
2022-12-06T07:16:08.209Z,101285.31
2022-12-06T07:18:36.212Z,101281.38
2022-12-06T07:21:07.295Z,101277.50
2022-12-06T07:23:37.173Z,101239.69
2022-12-06T07:26:07.332Z,101287.41
2022-12-06T07:28:38.919Z,101288.00
2022-12-06T07:31:11.341Z,101227.75
2022-12-06T07:33:39.875Z,101238.75
2022-12-06T07:36:13.263Z,101292.19
2022-12-06T07:38:42.315Z,101287.00
2022-12-06T07:41:30.797Z,101236.22
2022-12-06T07:44:18.984Z,101285.09
2022-12-06T07:46:47.602Z,101292.25
2022-12-06T07:49:16.904Z,101291.69
2022-12-06T07:51:45.115Z,101204.63
2022-12-06T07:54:13.739Z,101228.94
2022-12-06T07:56:41.975Z,101272.78
2022-12-06T07:59:11.585Z,101282.78
2022-12-06T08:01:40.123Z,101281.47
2022-12-06T08:04:08.841Z,101281.66
2022-12-06T08:06:37.047Z,101285.00
2022-12-06T08:09:05.507Z,101283.94
2022-12-06T08:11:33.471Z,101278.25
2022-12-06T08:14:01.566Z,101272.75
2022-12-06T08:16:31.046Z,101274.38
2022-12-06T08:18:59.202Z,101221.41
2022-12-06T08:21:27.230Z,101272.84
2022-12-06T08:23:55.552Z,101232.47
2022-12-06T08:26:24.113Z,101273.94
2022-12-06T08:28:52.670Z,101269.09
2022-12-06T08:31:23.008Z,101269.41
2022-12-06T08:33:53.077Z,101274.91
2022-12-06T08:36:22.970Z,101279.63
2022-12-06T08:38:52.016Z,101283.09
2022-12-06T08:41:38.222Z,101253.47
2022-12-06T08:44:06.653Z,101277.31
2022-12-06T08:46:35.568Z,101225.38
2022-12-06T08:49:05.387Z,101270.75
2022-12-06T08:51:35.522Z,101270.00
2022-12-06T08:54:04.324Z,101267.47
2022-12-06T08:56:32.790Z,101263.13
2022-12-06T08:59:00.889Z,101217.69
2022-12-06T09:01:37.095Z,101257.59
2022-12-06T09:04:10.534Z,101258.34
2022-12-06T09:06:40.124Z,101262.31
2022-12-06T09:09:09.127Z,101248.06
2022-12-06T09:11:37.704Z,101242.41
2022-12-06T09:14:05.669Z,101234.16
2022-12-06T09:16:33.862Z,101231.69
2022-12-06T09:19:02.171Z,101242.56
2022-12-06T09:21:32.970Z,101234.88
2022-12-06T09:24:01.170Z,101242.47
2022-12-06T09:26:29.896Z,101229.38
2022-12-06T09:28:59.444Z,101189.44
2022-12-06T09:31:27.553Z,101229.19
2022-12-06T09:33:55.608Z,101229.41
2022-12-06T09:36:25.341Z,101220.66
2022-12-06T09:38:58.467Z,101213.91
2022-12-06T09:42:09.342Z,101210.56
2022-12-06T09:44:53.756Z,101183.53
2022-12-06T09:47:34.502Z,101158.63
2022-12-06T09:50:11.937Z,101206.44
2022-12-06T09:53:17.273Z,101201.66
2022-12-06T09:56:01.588Z,101199.13
2022-12-06T09:58:46.839Z,101185.66
2022-12-06T10:01:21.530Z,101185.94
2022-12-06T10:04:05.301Z,101187.41
2022-12-06T10:06:41.644Z,101189.19
2022-12-06T10:09:27.102Z,101146.25
2022-12-06T10:12:10.140Z,101194.94
2022-12-06T10:14:57.594Z,101193.97
2022-12-06T10:17:33.102Z,101185.66
2022-12-06T10:20:06.846Z,101150.31
2022-12-06T10:22:50.873Z,101172.06
2022-12-06T10:25:23.819Z,101173.31
2022-12-06T10:28:04.650Z,101170.97
2022-12-06T10:30:34.857Z,101175.31
2022-12-06T10:33:09.811Z,101168.69
2022-12-06T10:35:43.377Z,101172.28
2022-12-06T10:38:23.678Z,101165.34
2022-12-06T10:41:04.349Z,101156.97
2022-12-06T10:43:43.018Z,101164.50
2022-12-06T10:46:35.903Z,101167.69
2022-12-06T10:49:08.454Z,101157.91
2022-12-06T10:51:42.868Z,101140.72
2022-12-06T10:54:23.442Z,101145.75
2022-12-06T10:56:54.644Z,101138.19
2022-12-06T10:59:33.096Z,101140.94
2022-12-06T11:02:14.442Z,101142.63
2022-12-06T11:04:45.001Z,101097.78
2022-12-06T11:07:16.370Z,101129.41
2022-12-06T11:09:47.229Z,101130.25
2022-12-06T11:12:29.542Z,101124.50
2022-12-06T11:15:13.498Z,101133.69
2022-12-06T11:17:47.834Z,101080.94
2022-12-06T11:20:24.994Z,101097.13
2022-12-06T11:23:06.045Z,101070.03
2022-12-06T11:25:42.821Z,101123.66
2022-12-06T11:28:26.959Z,101113.44
2022-12-06T11:30:58.418Z,101106.44
2022-12-06T11:33:31.402Z,101118.38
2022-12-06T11:36:02.572Z,101054.50
2022-12-06T11:38:31.537Z,101090.28
2022-12-06T11:41:00.439Z,101069.72
2022-12-06T11:43:35.377Z,101114.19
2022-12-06T11:46:07.157Z,101092.78
2022-12-06T11:48:36.857Z,101094.41
2022-12-06T11:51:06.557Z,101094.59
2022-12-06T11:53:40.589Z,101101.59
2022-12-06T11:56:16.383Z,101088.44
2022-12-06T11:58:52.284Z,101088.59
2022-12-06T12:01:21.662Z,101103.06
2022-12-06T12:03:49.513Z,101096.34
2022-12-06T12:06:21.386Z,101095.47
2022-12-06T12:08:55.140Z,101097.25
2022-12-06T12:11:26.754Z,101063.81
2022-12-06T12:13:58.994Z,101038.19
2022-12-06T12:16:34.313Z,101088.66
2022-12-06T12:19:05.541Z,101068.16
2022-12-06T12:21:37.989Z,101054.66
2022-12-06T12:24:07.812Z,101084.53
2022-12-06T12:26:39.897Z,101051.22
2022-12-06T12:29:18.490Z,101071.84
2022-12-06T12:31:56.758Z,101068.72
2022-12-06T12:34:26.953Z,101068.53
2022-12-06T12:36:57.830Z,101067.50
2022-12-06T12:39:35.404Z,101024.16
2022-12-06T12:42:03.622Z,101053.75
2022-12-06T12:44:38.033Z,101065.50
2022-12-06T12:47:18.985Z,101062.34
2022-12-06T12:50:00.661Z,101053.63
2022-12-06T12:52:30.877Z,101058.41
2022-12-06T12:55:01.943Z,101053.59
2022-12-06T12:57:30.128Z,101031.03
2022-12-06T12:59:58.393Z,101037.66
2022-12-06T13:02:30.590Z,101054.13
2022-12-06T13:05:31.199Z,101057.50
2022-12-06T13:07:54.155Z,101057.44
2022-12-06T13:10:28.871Z,101058.19
2022-12-06T13:13:00.062Z,101054.88
2022-12-06T13:15:36.933Z,101038.97
2022-12-06T13:18:14.160Z,101046.25
2022-12-06T13:20:42.796Z,101049.16
2022-12-06T13:23:15.419Z,100992.38
2022-12-06T13:25:48.209Z,101039.63
2022-12-06T13:28:21.825Z,100985.00
2022-12-06T13:30:55.690Z,101042.66
2022-12-06T13:33:28.254Z,100992.31
2022-12-06T13:36:01.433Z,101043.16
2022-12-06T13:38:32.384Z,101039.59
2022-12-06T13:41:01.018Z,101037.91
2022-12-06T13:43:50.302Z,100995.88
2022-12-06T13:46:27.896Z,100973.25
2022-12-06T13:48:59.053Z,101036.25
2022-12-06T13:51:47.660Z,101022.16
2022-12-06T13:54:36.298Z,101041.22
2022-12-06T13:57:22.815Z,101038.53
2022-12-06T13:59:51.030Z,101004.28
2022-12-06T14:02:52.125Z,101032.28
2022-12-06T14:08:39.735Z,101029.91
2022-12-06T14:11:20.341Z,101027.81
2022-12-06T14:13:50.050Z,100989.47
2022-12-06T14:16:31.217Z,101029.84
2022-12-06T14:18:59.584Z,101027.94
2022-12-06T14:21:35.760Z,100992.19
2022-12-06T14:24:04.660Z,101015.16
2022-12-06T14:26:34.701Z,101018.59
2022-12-06T14:29:02.969Z,101016.53
2022-12-06T14:31:40.192Z,101012.41
2022-12-06T14:34:25.449Z,101011.88
2022-12-06T14:36:55.641Z,100998.00
2022-12-06T14:39:26.437Z,101017.31
2022-12-06T14:42:13.600Z,101004.13
2022-12-06T14:44:47.918Z,101009.06
2022-12-06T14:47:18.418Z,100977.56
2022-12-06T14:50:24.900Z,101009.13
2022-12-06T14:52:59.376Z,100992.97
2022-12-06T14:55:28.072Z,100998.63
2022-12-06T14:58:01.256Z,100924.63
2022-12-06T15:00:36.344Z,100955.09
2022-12-06T15:03:26.611Z,100992.50
2022-12-06T15:06:13.987Z,100993.41
2022-12-06T15:08:47.072Z,100924.84
2022-12-06T15:11:43.903Z,101007.59
2022-12-06T15:14:14.560Z,101012.59
2022-12-06T15:16:44.074Z,101005.75
2022-12-06T15:19:14.659Z,101012.06
2022-12-06T15:21:43.320Z,101010.88
2022-12-06T15:24:19.345Z,101015.84
2022-12-06T15:26:47.972Z,100988.47
2022-12-06T15:29:16.244Z,101011.63
2022-12-06T15:31:46.505Z,100997.63
2022-12-06T15:34:23.215Z,101002.41
2022-12-06T15:37:08.918Z,100994.16
2022-12-06T15:39:41.249Z,100998.88
2022-12-06T15:42:16.774Z,101003.94
2022-12-06T15:44:49.224Z,100994.03
2022-12-06T15:47:18.432Z,100992.59
2022-12-06T15:49:46.679Z,100958.94
2022-12-06T15:52:17.322Z,100976.19
2022-12-06T15:54:47.192Z,100965.00
2022-12-06T15:57:15.221Z,101006.59
2022-12-06T15:59:43.089Z,100998.81
2022-12-06T16:02:16.004Z,100995.34
2022-12-06T16:04:44.542Z,100979.97
2022-12-06T16:07:19.142Z,100929.09
2022-12-06T16:09:49.055Z,100982.81
2022-12-06T16:12:17.173Z,100981.75
2022-12-06T16:14:45.356Z,100945.84
2022-12-06T16:17:13.163Z,100893.22
2022-12-06T16:19:58.757Z,100977.00
2022-12-06T16:22:40.514Z,100976.03
2022-12-06T16:25:10.544Z,100973.41
2022-12-06T16:27:38.431Z,100962.28
2022-12-06T16:30:08.017Z,100967.38
2022-12-06T16:32:36.582Z,100958.06
2022-12-06T16:35:04.772Z,100954.91
2022-12-06T16:37:32.680Z,100958.25
2022-12-06T16:40:00.825Z,100964.28
2022-12-06T16:42:30.093Z,100908.06
2022-12-06T16:44:58.084Z,100940.06
2022-12-06T16:49:53.026Z,100962.00
2022-12-06T16:52:20.892Z,100956.63
2022-12-06T16:54:48.942Z,100953.59
2022-12-06T16:57:19.672Z,100961.19
2022-12-06T16:59:49.227Z,100964.25
2022-12-06T17:02:27.001Z,100941.88
2022-12-06T17:04:56.094Z,100962.88
2022-12-06T17:07:24.544Z,100918.41
2022-12-06T17:09:52.462Z,100915.91
2022-12-06T17:12:20.447Z,100971.19
2022-12-06T17:14:49.639Z,100962.59
2022-12-06T17:17:20.329Z,100980.00
2022-12-06T17:19:49.001Z,100913.91
2022-12-06T17:22:18.651Z,100983.28
2022-12-06T17:24:46.943Z,100933.72
2022-12-06T17:27:15.443Z,100974.41
2022-12-06T17:29:44.047Z,100971.72
2022-12-06T17:32:35.170Z,100970.88
2022-12-06T17:35:03.429Z,100920.25
2022-12-06T17:37:31.734Z,100924.25
2022-12-06T17:39:59.826Z,100916.88
2022-12-06T17:42:44.878Z,100972.09
2022-12-06T17:45:13.182Z,100970.56
2022-12-06T17:47:42.397Z,100965.28
2022-12-06T17:50:11.673Z,100973.94
2022-12-06T17:52:39.808Z,100962.38
2022-12-06T17:55:27.785Z,100963.97
2022-12-06T17:57:55.737Z,100965.75
2022-12-06T18:00:24.073Z,100915.63
2022-12-06T18:02:53.403Z,100955.84
2022-12-06T18:05:21.597Z,100959.13
2022-12-06T18:07:51.214Z,100962.91
2022-12-06T18:10:19.147Z,100960.72
2022-12-06T18:12:47.272Z,100963.94
2022-12-06T18:15:29.327Z,100948.94
2022-12-06T18:17:58.922Z,100945.75
2022-12-06T18:20:26.802Z,100959.13
2022-12-06T18:22:54.657Z,100903.50
2022-12-06T18:25:23.318Z,100959.97
2022-12-06T18:27:51.170Z,100953.00
2022-12-06T18:30:19.394Z,100900.69
2022-12-06T18:32:47.576Z,100943.66
2022-12-06T18:35:17.054Z,100897.69
2022-12-06T18:37:44.883Z,100961.56
2022-12-06T18:40:13.107Z,100939.16
2022-12-06T18:42:40.965Z,100941.72
2022-12-06T18:45:09.458Z,100930.75
2022-12-06T18:47:37.525Z,100945.69
2022-12-06T18:50:08.999Z,100933.63
2022-12-06T18:52:39.557Z,100942.75
2022-12-06T18:55:08.606Z,100945.25
2022-12-06T18:57:37.972Z,100942.66
2022-12-06T19:00:07.123Z,100935.56
2022-12-06T19:02:35.029Z,100934.47
2022-12-06T19:05:03.134Z,100932.41
2022-12-06T19:07:31.570Z,100889.97
2022-12-06T19:10:01.089Z,100930.72
2022-12-06T19:12:29.153Z,100934.66
2022-12-06T19:14:57.326Z,100931.44
2022-12-06T19:17:25.329Z,100928.59
2022-12-06T19:19:53.192Z,100924.13
2022-12-06T19:22:21.281Z,100927.09
2022-12-06T19:24:49.319Z,100926.53
2022-12-06T19:27:20.597Z,100925.66
2022-12-06T19:29:49.041Z,100915.84
2022-12-06T19:32:16.987Z,100917.88
2022-12-06T19:34:44.874Z,100916.16
2022-12-06T19:37:12.950Z,100909.22
2022-12-06T19:39:40.925Z,100904.53
2022-12-06T19:42:26.602Z,100903.09
2022-12-06T19:44:56.188Z,100896.72
2022-12-06T19:47:24.203Z,100898.22
2022-12-06T19:49:52.292Z,100912.94
2022-12-06T19:52:20.295Z,100902.53
2022-12-06T19:54:48.127Z,100906.53
2022-12-06T19:57:16.216Z,100912.09
2022-12-06T19:59:44.380Z,100905.38
2022-12-06T20:02:14.257Z,100903.56
2022-12-06T20:04:44.127Z,100898.56
2022-12-06T20:07:12.327Z,100906.53
2022-12-06T20:09:40.246Z,100906.44
2022-12-06T20:12:09.112Z,100901.56
2022-12-06T20:14:48.775Z,100897.72
2022-12-06T20:17:20.023Z,100900.06
2022-12-06T20:19:49.156Z,100899.34
2022-12-06T20:22:18.949Z,100837.56
2022-12-06T20:24:48.577Z,100894.38
2022-12-06T20:27:17.252Z,100851.31
2022-12-06T20:29:45.207Z,100899.28
2022-12-06T20:32:13.266Z,100897.72
2022-12-06T20:34:42.607Z,100890.56
2022-12-06T20:37:13.736Z,100886.34
2022-12-06T20:39:41.824Z,100894.69
2022-12-06T20:42:10.150Z,100901.94
2022-12-06T20:44:38.158Z,100884.25
2022-12-06T20:47:06.188Z,100887.50
2022-12-06T20:49:34.233Z,100864.34
2022-12-06T20:52:05.051Z,100885.31
2022-12-06T20:54:33.002Z,100890.97
2022-12-06T20:57:01.987Z,100855.75
2022-12-06T20:59:30.244Z,100837.63
2022-12-06T21:01:58.231Z,100817.59
2022-12-06T21:04:26.952Z,100880.41
2022-12-06T21:06:55.268Z,100878.75
2022-12-06T21:09:24.663Z,100878.88
2022-12-06T21:11:52.613Z,100881.03
2022-12-06T21:14:20.665Z,100885.84
2022-12-06T21:16:48.658Z,100886.13
2022-12-06T21:19:19.478Z,100889.13
2022-12-06T21:21:49.499Z,100889.13
2022-12-06T21:24:19.977Z,100878.41
2022-12-06T21:26:49.984Z,100840.97
2022-12-06T21:29:21.663Z,100890.88
2022-12-06T21:31:51.796Z,100889.56
2022-12-06T21:34:39.105Z,100894.94
2022-12-06T21:37:11.009Z,100888.22
2022-12-06T21:39:39.390Z,100890.53
2022-12-06T21:42:12.239Z,100841.47
2022-12-06T21:44:40.253Z,100887.03
2022-12-06T21:47:08.113Z,100789.06
2022-12-06T21:49:36.097Z,100888.19
2022-12-06T21:52:09.224Z,100866.72
2022-12-06T21:54:37.645Z,100883.94
2022-12-06T21:57:05.573Z,100807.91
2022-12-06T21:59:34.830Z,100847.66
2022-12-06T22:02:03.032Z,100880.03
2022-12-06T22:04:31.047Z,100891.84
2022-12-06T22:06:59.040Z,100869.81
2022-12-06T22:09:27.173Z,100881.91
2022-12-06T22:11:55.268Z,100881.69
2022-12-06T22:14:23.207Z,100867.63
2022-12-06T22:16:52.562Z,100880.59
2022-12-06T22:19:20.577Z,100830.47
2022-12-06T22:21:48.817Z,100870.59
2022-12-06T22:24:16.741Z,100881.19
2022-12-06T22:26:44.654Z,100877.03
2022-12-06T22:29:12.694Z,100837.84
2022-12-06T22:31:40.585Z,100837.63
2022-12-06T22:34:11.469Z,100869.44
2022-12-06T22:36:39.482Z,100873.03
2022-12-06T22:39:07.592Z,100870.53
2022-12-06T22:41:35.545Z,100876.41
2022-12-06T22:44:05.466Z,100864.91
2022-12-06T22:46:34.702Z,100867.91
2022-12-06T22:49:03.368Z,100857.53
2022-12-06T22:51:33.844Z,100754.91
2022-12-06T22:54:03.984Z,100868.84
2022-12-06T22:56:33.233Z,100864.94
2022-12-06T22:59:02.488Z,100863.06
2022-12-06T23:01:32.675Z,100874.47
2022-12-06T23:04:02.133Z,100865.88
2022-12-06T23:06:30.781Z,100872.75
2022-12-06T23:09:00.265Z,100867.38
2022-12-06T23:11:30.030Z,100865.50
2022-12-06T23:13:59.200Z,100861.50
2022-12-06T23:16:29.505Z,100861.69
2022-12-06T23:18:57.700Z,100861.69
2022-12-06T23:21:27.383Z,100865.09
2022-12-06T23:23:57.083Z,100871.97
2022-12-06T23:26:28.326Z,100870.47
2022-12-06T23:28:56.283Z,100869.63
2022-12-06T23:31:25.952Z,100877.41
2022-12-06T23:33:55.713Z,100873.31
2022-12-06T23:36:26.385Z,100871.75
2022-12-06T23:38:54.685Z,100822.06
2022-12-06T23:41:24.611Z,100875.78
2022-12-06T23:43:54.735Z,100873.38
2022-12-06T23:46:25.395Z,100875.22
2022-12-06T23:48:54.159Z,100878.13
2022-12-06T23:51:23.539Z,100869.66
2022-12-06T23:53:52.988Z,100871.28
2022-12-06T23:56:23.169Z,100868.28
2022-12-06T23:58:51.932Z,100879.66
